Time;durP1;ratioP1;P1;durP2;ratioP2;P2;SDS_P1;SDS_P2;PMS_P1;PMS_P2;Temp;Humidity;BMP_temperature;BMP_pressure;BME280_temperature;BME280_humidity;BME280_pressure;Samples;Min_cycle;Max_cycle;Signal;HPM_P1;HPM_P2
2021/10/07 00:00:50;;;;;;;54.38;25.27;;;14.20;99.90;;;12.20;100.00;101163.41;5029097;28;20049;-82
2021/10/07 00:03:44;;;;;;;56.17;27.98;;;14.20;99.90;;;12.21;100.00;101169.75;5038961;28;20064;-82
2021/10/07 00:06:11;;;;;;;53.40;26.48;;;14.10;99.90;;;12.15;100.00;101167.69;5042414;28;20099;-82
2021/10/07 00:08:39;;;;;;;54.47;26.67;;;14.10;99.90;;;12.13;100.00;101176.94;5048554;28;20068;-82
2021/10/07 00:11:12;;;;;;;53.15;26.70;;;14.20;99.90;;;12.18;100.00;101181.84;5049226;28;20075;-81
2021/10/07 00:13:39;;;;;;;60.55;26.08;;;14.20;99.90;;;12.20;100.00;101195.31;5068683;28;20056;-82
2021/10/07 00:16:07;;;;;;;60.47;25.42;;;14.10;99.90;;;12.22;100.00;101187.78;5068509;28;20090;-82
2021/10/07 00:18:37;;;;;;;54.92;25.15;;;14.20;99.90;;;12.20;100.00;101195.31;5033166;28;20065;-82
2021/10/07 00:21:05;;;;;;;46.97;23.90;;;14.20;99.90;;;12.18;100.00;101203.66;5043267;28;20408;-82
2021/10/07 00:23:36;;;;;;;40.75;21.65;;;14.20;99.90;;;12.17;100.00;101203.88;5048683;28;20126;-82
2021/10/07 00:26:03;;;;;;;50.47;22.17;;;14.20;99.90;;;12.13;100.00;101203.38;5048489;28;20170;-82
2021/10/07 00:28:33;;;;;;;46.03;21.38;;;14.20;99.90;;;12.09;100.00;101211.06;5048529;28;20076;-82
2021/10/07 00:31:02;;;;;;;46.55;20.92;;;14.20;99.90;;;12.04;100.00;101207.16;5047335;28;20053;-82
2021/10/07 00:33:35;;;;;;;45.30;21.02;;;14.20;99.90;;;12.03;100.00;101214.50;5048576;28;20040;-82
2021/10/07 00:36:11;;;;;;;51.17;20.85;;;14.20;99.90;;;12.02;100.00;101220.97;5047778;28;20059;-82
2021/10/07 00:41:23;;;;;;;38.95;19.63;;;14.10;99.90;;;11.99;100.00;101225.94;5048420;28;20147;-82
2021/10/07 00:43:52;;;;;;;37.15;18.90;;;14.10;99.90;;;11.92;100.00;101225.81;5033039;28;20045;-82
2021/10/07 00:46:19;;;;;;;32.92;18.35;;;14.10;99.90;;;11.90;100.00;101223.25;5010595;28;20073;-82
2021/10/07 00:48:46;;;;;;;43.72;19.88;;;14.10;99.90;;;11.88;100.00;101221.66;5027951;28;20144;-82
2021/10/07 00:51:13;;;;;;;39.63;18.98;;;14.10;99.90;;;11.83;100.00;101222.22;5048285;28;20045;-82
2021/10/07 00:53:41;;;;;;;43.47;19.35;;;14.10;99.90;;;11.71;100.00;101229.06;5048117;28;20045;-82
2021/10/07 00:56:08;;;;;;;36.85;18.80;;;14.00;99.90;;;11.68;100.00;101223.97;5048228;28;20041;-82
2021/10/07 00:58:35;;;;;;;38.65;17.58;;;14.00;99.90;;;11.66;100.00;101229.59;5048146;28;20055;-82
2021/10/07 01:01:04;;;;;;;47.58;19.23;;;14.00;99.90;;;11.66;100.00;101231.47;5048212;28;20053;-82
2021/10/07 01:03:33;;;;;;;38.30;18.00;;;14.00;99.90;;;11.71;100.00;101229.91;5048084;28;20053;-82
2021/10/07 01:06:01;;;;;;;35.30;17.10;;;13.90;99.90;;;11.78;100.00;101237.41;5048147;28;20060;-82
2021/10/07 01:08:28;;;;;;;52.50;19.90;;;13.90;99.90;;;11.82;100.00;101236.00;5047881;28;20139;-82
2021/10/07 01:10:56;;;;;;;33.70;17.48;;;13.90;99.90;;;11.76;100.00;101237.56;5048248;28;20047;-82
2021/10/07 01:13:23;;;;;;;44.88;18.88;;;13.90;99.90;;;11.69;100.00;101248.34;5067646;28;20076;-82
2021/10/07 01:15:50;;;;;;;33.30;18.30;;;13.90;99.90;;;11.66;100.00;101245.94;5068203;28;20053;-82
2021/10/07 01:18:19;;;;;;;40.67;18.08;;;13.90;99.90;;;11.72;100.00;101241.66;5049718;28;20055;-82
2021/10/07 01:20:47;;;;;;;38.55;17.95;;;13.90;99.90;;;11.72;100.00;101241.66;5031199;28;20483;-82
2021/10/07 01:23:15;;;;;;;32.97;17.92;;;13.90;99.90;;;11.75;100.00;101246.78;5027973;28;20134;-82
2021/10/07 01:25:42;;;;;;;43.38;20.10;;;13.90;99.90;;;11.74;100.00;101247.78;5028198;28;20139;-82
2021/10/07 01:28:09;;;;;;;42.05;21.10;;;13.90;99.90;;;11.74;100.00;101248.63;5009932;28;20048;-82
2021/10/07 01:30:36;;;;;;;45.22;20.80;;;13.80;99.90;;;11.79;100.00;101250.03;5046495;28;20045;-82
2021/10/07 01:33:04;;;;;;;38.70;20.38;;;13.90;99.90;;;11.77;100.00;101244.72;5042292;28;20072;-82
2021/10/07 01:35:31;;;;;;;40.03;21.90;;;13.80;99.90;;;11.67;100.00;101253.13;5028178;28;20561;-82
2021/10/07 01:38:00;;;;;;;41.20;21.40;;;13.90;99.90;;;11.63;100.00;101243.59;5029376;28;20050;-82
2021/10/07 01:40:27;;;;;;;41.30;21.75;;;13.80;99.90;;;11.64;100.00;101250.72;5031576;28;20041;-82
2021/10/07 01:42:55;;;;;;;39.65;20.40;;;13.80;99.90;;;11.61;100.00;101244.75;5031625;28;20080;-82
2021/10/07 01:45:22;;;;;;;42.33;21.58;;;13.80;99.90;;;11.61;100.00;101248.31;5031473;28;20099;-82
2021/10/07 01:47:50;;;;;;;49.05;23.90;;;13.70;99.90;;;11.68;100.00;101251.22;5031390;28;20132;-82
2021/10/07 01:50:17;;;;;;;44.75;23.08;;;13.70;99.90;;;11.69;100.00;101248.34;5042031;28;20055;-82
2021/10/07 01:52:44;;;;;;;49.38;24.33;;;13.70;99.90;;;11.69;100.00;101258.38;5051522;28;20129;-82
2021/10/07 01:55:13;;;;;;;50.17;25.33;;;13.70;99.90;;;11.70;100.00;101252.75;5051486;28;20056;-81
2021/10/07 01:57:41;;;;;;;47.90;24.77;;;13.70;99.90;;;11.67;100.00;101260.41;5051258;28;20095;-82
2021/10/07 02:00:11;;;;;;;37.55;22.33;;;13.80;99.90;;;11.63;100.00;101257.22;5051016;28;20508;-81
2021/10/07 02:02:38;;;;;;;42.67;21.63;;;13.80;99.90;;;11.58;100.00;101262.31;5051073;28;20791;-82
2021/10/07 02:05:07;;;;;;;43.60;23.55;;;13.70;99.90;;;11.59;100.00;101264.00;5051146;28;20128;-82
2021/10/07 02:07:34;;;;;;;41.70;23.35;;;13.70;99.90;;;11.64;100.00;101269.81;5044576;28;20312;-82
2021/10/07 02:10:08;;;;;;;49.28;25.50;;;13.70;99.90;;;11.67;100.00;101277.66;5030965;28;20144;-82
2021/10/07 02:12:37;;;;;;;47.90;24.90;;;13.70;99.90;;;11.72;100.00;101275.22;5056936;28;20041;-82
2021/10/07 02:15:05;;;;;;;49.83;25.08;;;13.70;99.90;;;11.78;100.00;101283.75;5070912;28;20052;-82
2021/10/07 02:17:33;;;;;;;50.17;25.05;;;13.70;99.90;;;11.81;100.00;101284.25;5070967;28;20131;-82
2021/10/07 02:20:00;;;;;;;37.90;21.70;;;13.70;99.90;;;11.84;100.00;101280.31;5049682;28;20041;-81
2021/10/07 02:22:27;;;;;;;44.72;23.20;;;13.70;99.90;;;11.84;100.00;101278.47;5031102;28;20059;-82
2021/10/07 02:24:55;;;;;;;46.00;25.63;;;13.70;99.90;;;11.86;100.00;101289.19;5033395;28;20356;-81
2021/10/07 02:27:22;;;;;;;51.78;26.63;;;13.70;99.90;;;11.84;100.00;101280.31;5030924;28;20311;-82
2021/10/07 02:29:51;;;;;;;49.13;25.15;;;13.70;99.90;;;11.79;100.00;101285.47;5054151;28;20125;-82
2021/10/07 02:32:19;;;;;;;57.28;26.75;;;13.70;99.90;;;11.77;100.00;101279.34;5070830;28;20041;-82
2021/10/07 02:34:46;;;;;;;42.55;23.20;;;13.80;99.90;;;11.74;100.00;101284.09;5070747;28;20123;-82
2021/10/07 02:37:13;;;;;;;49.15;24.38;;;13.80;99.90;;;11.78;100.00;101291.94;5070723;28;20520;-82
2021/10/07 02:39:41;;;;;;;63.53;25.08;;;13.80;99.90;;;11.80;100.00;101289.88;5051424;28;20040;-82
2021/10/07 02:42:08;;;;;;;53.67;25.65;;;13.80;99.90;;;11.82;100.00;101291.44;5049326;28;20519;-82
2021/10/07 02:44:36;;;;;;;49.25;24.08;;;13.80;99.90;;;11.79;100.00;101290.94;5030315;28;20120;-82
2021/10/07 02:47:04;;;;;;;39.85;22.17;;;13.80;99.90;;;11.80;100.00;101298.06;5030603;28;20076;-82
2021/10/07 02:49:32;;;;;;;44.75;22.88;;;13.80;99.90;;;11.77;100.00;101292.97;5011096;28;20053;-82
2021/10/07 02:51:59;;;;;;;43.08;23.20;;;13.80;99.90;;;11.73;100.00;101292.47;5030397;28;20588;-82
2021/10/07 02:54:29;;;;;;;45.88;23.17;;;13.80;99.90;;;11.70;100.00;101293.66;5030291;28;20045;-82
2021/10/07 02:57:03;;;;;;;54.70;24.58;;;13.70;99.90;;;11.61;100.00;101294.69;5030063;28;20420;-82
2021/10/07 02:59:36;;;;;;;52.20;23.52;;;13.80;99.90;;;11.55;100.00;101296.22;5029934;28;20057;-82
2021/10/07 03:02:05;;;;;;;44.22;22.80;;;13.70;99.90;;;11.55;100.00;101306.28;5037153;28;20072;-82
2021/10/07 03:04:32;;;;;;;45.28;22.63;;;13.70;99.90;;;11.59;100.00;101312.25;5017178;28;20417;-82
2021/10/07 03:06:59;;;;;;;38.65;21.67;;;13.70;99.90;;;11.54;100.00;101315.50;5030090;28;20080;-82
2021/10/07 03:09:26;;;;;;;48.13;22.88;;;13.70;99.90;;;11.55;100.00;101311.72;5028408;28;20144;-82
2021/10/07 03:11:54;;;;;;;48.47;23.67;;;13.70;99.90;;;11.51;100.00;101318.56;5044445;28;20414;-82
2021/10/07 03:14:21;;;;;;;42.92;20.95;;;13.70;99.90;;;11.50;100.00;101323.16;5069627;28;20072;-82
2021/10/07 03:16:48;;;;;;;54.55;23.70;;;13.70;99.90;;;11.50;100.00;101331.34;5070019;28;20481;-82
2021/10/07 03:19:16;;;;;;;43.42;21.13;;;13.60;99.90;;;11.52;100.00;101334.75;5030888;28;20124;-82
2021/10/07 03:21:44;;;;;;;42.38;21.27;;;13.70;99.90;;;11.56;100.00;101335.25;5030008;28;20041;-81
2021/10/07 03:24:11;;;;;;;41.45;21.85;;;13.60;99.90;;;11.55;100.00;101339.00;5029669;28;20072;-81
2021/10/07 03:26:38;;;;;;;43.10;20.95;;;13.60;99.90;;;11.61;100.00;101343.75;5012001;28;20045;-82
2021/10/07 03:29:05;;;;;;;48.92;21.00;;;13.60;99.90;;;11.58;100.00;101349.56;5029402;28;20124;-82
2021/10/07 03:31:33;;;;;;;43.22;21.23;;;13.60;99.90;;;11.57;100.00;101353.31;5029703;28;20234;-82
2021/10/07 03:34:02;;;;;;;44.90;22.13;;;13.60;99.90;;;11.60;100.00;101352.97;5029525;28;20040;-82
2021/10/07 03:36:30;;;;;;;55.20;23.50;;;13.60;99.90;;;11.64;100.00;101358.94;5029626;28;20127;-82
2021/10/07 03:38:57;;;;;;;39.85;20.27;;;13.60;99.90;;;11.63;100.00;101357.22;5029171;28;20069;-83
2021/10/07 03:41:25;;;;;;;47.50;22.60;;;13.70;99.90;;;11.66;100.00;101363.19;5029282;28;20064;-82
2021/10/07 03:43:52;;;;;;;47.25;21.15;;;13.60;99.90;;;11.67;100.00;101364.03;5029056;28;20048;-83
2021/10/07 03:46:19;;;;;;;50.58;22.20;;;13.60;99.90;;;11.67;100.00;101364.91;5067758;22;20493;-86
2021/10/07 03:48:47;;;;;;;43.53;20.85;;;13.60;99.90;;;11.66;100.00;101368.63;5049496;28;20519;-86
2021/10/07 03:51:14;;;;;;;60.25;22.85;;;13.60;99.90;;;11.65;100.00;101374.25;5069074;28;20099;-86
2021/10/07 03:53:43;;;;;;;48.05;21.38;;;13.60;99.90;;;11.60;100.00;101377.50;5068977;28;20123;-86
2021/10/07 03:56:10;;;;;;;42.75;21.60;;;13.70;99.90;;;11.63;100.00;101373.56;5068889;28;20614;-86
2021/10/07 03:58:38;;;;;;;45.50;21.45;;;13.70;99.90;;;11.65;100.00;101375.13;5049347;28;20502;-86
2021/10/07 04:01:05;;;;;;;44.25;21.73;;;13.60;99.90;;;11.60;100.00;101385.69;5068545;28;20076;-84
2021/10/07 04:03:32;;;;;;;41.30;21.65;;;13.60;99.90;;;11.58;100.00;101382.28;5061993;28;20150;-84
2021/10/07 04:06:00;;;;;;;43.67;20.02;;;13.60;99.90;;;11.58;100.00;101387.72;5030691;28;20055;-84
2021/10/07 04:08:27;;;;;;;41.13;21.13;;;13.60;99.90;;;11.56;100.00;101392.50;5048375;28;20132;-84
2021/10/07 04:10:56;;;;;;;40.03;21.08;;;13.60;99.90;;;11.54;100.00;101398.13;5048851;28;20577;-84
2021/10/07 04:13:25;;;;;;;38.70;19.30;;;13.60;99.90;;;11.52;100.00;101400.16;5068003;28;20149;-84
2021/10/07 04:15:53;;;;;;;40.45;19.42;;;13.60;99.90;;;11.33;100.00;101390.44;5067642;28;20044;-84
2021/10/07 04:18:21;;;;;;;42.08;20.75;;;13.60;99.90;;;11.35;100.00;101410.19;5056902;28;20037;-84
2021/10/07 04:20:50;;;;;;;41.22;19.73;;;13.50;99.90;;;11.24;100.00;101406.94;5048445;28;20076;-84
2021/10/07 04:23:19;;;;;;;39.88;20.02;;;13.50;99.90;;;11.17;100.00;101411.34;5045068;28;20068;-84
2021/10/07 04:25:47;;;;;;;45.88;20.85;;;13.50;99.90;;;11.15;100.00;101411.50;5063130;28;20040;-86
2021/10/07 04:28:16;;;;;;;48.03;20.60;;;13.50;99.90;;;11.12;100.00;101418.16;5068417;28;20378;-86
2021/10/07 04:30:43;;;;;;;48.20;22.45;;;13.40;99.90;;;11.07;100.00;101422.38;5068524;28;20093;-86
2021/10/07 04:33:12;;;;;;;53.05;22.10;;;13.40;99.90;;;11.04;100.00;101423.59;5068340;28;20044;-86
2021/10/07 04:35:41;;;;;;;44.92;20.67;;;13.40;99.90;;;11.01;100.00;101418.44;5068346;28;20044;-86
2021/10/07 04:38:09;;;;;;;65.35;22.25;;;13.40;99.90;;;11.00;100.00;101421.34;5055136;28;20077;-89
2021/10/07 04:40:36;;;;;;;58.08;22.75;;;13.30;99.90;;;11.03;100.00;101427.31;5043062;28;20064;-89
2021/10/07 04:43:05;;;;;;;38.80;19.55;;;13.30;99.90;;;10.94;100.00;101429.13;5040640;28;20119;-90
2021/10/07 04:45:33;;;;;;;44.85;20.38;;;13.20;99.90;;;11.00;100.00;101426.78;5032843;28;20600;-90
2021/10/07 04:48:01;;;;;;;80.18;26.63;;;13.20;99.90;;;10.98;100.00;101434.28;5026819;28;20579;-90
2021/10/07 04:50:28;;;;;;;52.63;21.45;;;13.20;99.90;;;10.94;100.00;101434.59;5046687;28;20788;-90
2021/10/07 04:52:56;;;;;;;46.30;20.75;;;13.20;99.90;;;11.03;100.00;101437.38;5034033;28;20045;-91
2021/10/07 04:55:23;;;;;;;95.70;26.30;;;13.20;99.90;;;11.08;100.00;101434.97;5047042;28;20077;-90
2021/10/07 04:57:50;;;;;;;105.35;24.70;;;13.20;99.90;;;11.02;100.00;101432.91;5030388;28;20425;-91
2021/10/07 05:00:18;;;;;;;138.52;27.58;;;13.20;99.90;;;11.05;100.00;101438.03;5029323;28;20134;-91
2021/10/07 05:02:47;;;;;;;55.35;23.52;;;13.20;99.90;;;11.06;100.00;101442.47;5045144;28;20044;-89
2021/10/07 05:05:14;;;;;;;54.28;21.35;;;13.20;99.90;;;11.04;100.00;101444.50;5030054;28;20080;-90
2021/10/07 05:07:43;;;;;;;56.20;24.35;;;13.10;99.90;;;11.04;100.00;101441.78;5048395;28;20127;-90
2021/10/07 05:10:12;;;;;;;248.02;31.25;;;13.10;99.90;;;10.96;100.00;101451.63;5048127;28;20196;-91
2021/10/07 05:12:40;;;;;;;186.07;29.33;;;13.10;99.90;;;10.94;100.00;101452.81;5044445;28;20902;-89
2021/10/07 05:15:09;;;;;;;147.13;28.05;;;13.20;99.90;;;10.96;100.00;101454.34;5039358;28;20051;-88
2021/10/07 05:17:37;;;;;;;76.65;23.30;;;13.20;99.90;;;10.94;100.00;101450.94;5031899;28;20103;-88
2021/10/07 05:20:09;;;;;;;51.53;22.55;;;13.20;99.90;;;10.93;100.00;101454.69;5053165;28;20068;-88
2021/10/07 05:22:36;;;;;;;;;;;13.10;99.90;;;10.86;100.00;101459.06;5046228;28;20088;-89
2021/10/07 05:25:05;;;;;;;181.18;26.83;;;13.10;99.90;;;10.75;100.00;101451.19;5029007;28;19928;-88
2021/10/07 05:27:33;;;;;;;55.60;21.25;;;13.10;99.90;;;10.75;100.00;101451.19;5051604;28;20048;-88
2021/10/07 05:30:00;;;;;;;69.57;23.75;;;13.10;99.90;;;10.76;100.00;101452.91;5053275;28;20463;-89
2021/10/07 05:32:27;;;;;;;51.83;22.35;;;13.10;99.90;;;10.77;100.00;101454.59;5071946;28;20152;-89
2021/10/07 05:34:55;;;;;;;45.90;23.02;;;13.10;99.90;;;10.81;100.00;101461.41;5053622;28;20049;-89
2021/10/07 05:37:24;;;;;;;67.63;25.70;;;13.10;99.90;;;10.84;100.00;101465.72;5071821;28;20110;-89
2021/10/07 05:39:51;;;;;;;65.95;25.48;;;13.10;99.90;;;10.79;100.00;101471.63;5071071;28;20568;-88
2021/10/07 05:42:18;;;;;;;65.93;25.42;;;13.10;99.90;;;10.87;100.00;101473.53;5051923;28;20544;-88
2021/10/07 05:44:45;;;;;;;63.58;26.30;;;13.00;99.90;;;10.87;100.00;101474.41;5033611;28;20052;-89
2021/10/07 05:47:13;;;;;;;144.68;33.45;;;13.10;99.90;;;10.88;100.00;101484.28;5051562;28;20560;-89
2021/10/07 05:49:40;;;;;;;80.13;28.38;;;13.10;99.90;;;10.87;100.00;101495.31;5033118;28;20191;-88
2021/10/07 05:52:08;;;;;;;77.72;27.52;;;13.00;99.90;;;10.74;100.00;101503.94;5050334;28;20041;-88
2021/10/07 05:54:36;;;;;;;63.83;26.48;;;13.10;99.90;;;10.70;100.00;101508.88;5030585;28;20398;-88
2021/10/07 05:57:05;;;;;;;74.47;26.60;;;13.00;99.90;;;10.86;100.00;101501.81;5066147;28;20045;-88
2021/10/07 05:59:32;;;;;;;65.38;26.13;;;12.90;99.90;;;10.92;100.00;101507.44;5059667;28;20123;-88
2021/10/07 06:01:59;;;;;;;78.63;28.92;;;12.90;99.90;;;10.96;100.00;101497.91;5035837;28;20055;-88
2021/10/07 06:04:27;;;;;;;64.25;25.20;;;12.90;99.90;;;10.85;100.00;101505.53;5014750;28;20536;-89
2021/10/07 06:06:54;;;;;;;75.78;26.25;;;12.90;99.90;;;10.80;100.00;101513.34;5053300;28;20133;-93
2021/10/07 06:09:21;;;;;;;70.57;24.92;;;12.90;99.90;;;10.80;100.00;101516.06;5053661;28;20056;-93
2021/10/07 06:11:50;;;;;;;98.60;29.35;;;13.00;99.90;;;10.80;100.00;101519.63;5047854;28;20053;-90
2021/10/07 06:14:17;;;;;;;75.18;26.48;;;13.00;99.90;;;10.77;100.00;101530.84;5034516;28;20070;-91
2021/10/07 06:16:46;;;;;;;55.20;24.48;;;13.00;99.90;;;10.83;100.00;101524.75;5051575;28;20412;-90
2021/10/07 06:19:17;;;;;;;;;;;12.90;99.90;;;10.89;100.00;101532.28;5032974;28;20047;-89
2021/10/07 06:21:44;;;;;;;60.05;24.92;;;13.00;99.90;;;10.89;100.00;101534.13;5013009;28;19921;-89
2021/10/07 06:24:12;;;;;;;61.03;26.23;;;13.00;99.90;;;10.93;100.00;101530.94;5030456;28;20541;-89
2021/10/07 06:26:40;;;;;;;61.15;25.73;;;13.00;99.90;;;11.01;100.00;101532.00;5049774;28;20048;-90
2021/10/07 06:29:09;;;;;;;61.95;25.60;;;12.90;99.90;;;11.03;100.00;101535.44;5052385;28;20048;-89
2021/10/07 06:31:37;;;;;;;61.25;24.63;;;12.80;99.90;;;11.04;100.00;101545.28;5040998;28;20045;-89
2021/10/07 06:34:06;;;;;;;55.78;24.73;;;12.90;99.90;;;11.03;100.00;101549.03;5042615;28;20182;-89
2021/10/07 06:36:35;;;;;;;72.95;26.92;;;12.90;99.90;;;11.03;100.00;101549.03;5066108;28;20045;-90
2021/10/07 06:39:03;;;;;;;68.15;25.92;;;12.90;99.90;;;10.98;100.00;101548.66;5070655;28;20037;-88
2021/10/07 06:41:30;;;;;;;76.93;28.10;;;12.90;99.90;;;11.06;100.00;101552.31;5052677;28;20056;-89
2021/10/07 06:43:57;;;;;;;64.95;25.60;;;12.90;99.90;;;11.05;100.00;101557.91;5052533;28;20049;-89
2021/10/07 06:46:26;;;;;;;74.70;26.65;;;12.90;99.90;;;11.06;100.00;101559.59;5065859;28;20071;-90
2021/10/07 06:48:55;;;;;;;80.45;28.40;;;13.00;99.90;;;11.07;100.00;101564.03;5068942;28;20041;-89
2021/10/07 06:51:23;;;;;;;69.78;26.35;;;13.00;99.90;;;11.11;100.00;101569.00;5052759;28;20045;-90
2021/10/07 06:53:53;;;;;;;63.50;25.15;;;13.10;99.90;;;11.08;100.00;101576.63;5030321;28;20444;-90
2021/10/07 06:56:21;;;;;;;55.50;24.77;;;13.10;99.90;;;11.14;100.00;101576.00;5046368;28;20395;-89
2021/10/07 06:58:52;;;;;;;62.10;24.88;;;13.10;99.90;;;11.14;100.00;101581.47;5047697;28;20144;-90
2021/10/07 07:01:20;;;;;;;62.60;25.67;;;13.10;99.90;;;11.16;100.00;101584.88;5026972;28;20524;-89
2021/10/07 07:03:51;;;;;;;57.95;24.50;;;13.10;99.90;;;11.14;100.00;101589.63;5053089;28;20064;-89
2021/10/07 07:06:19;;;;;;;72.43;27.45;;;13.10;99.90;;;11.11;100.00;101579.03;5063978;28;20071;-89
2021/10/07 07:08:46;;;;;;;84.25;27.75;;;13.10;99.90;;;11.05;100.00;101590.59;5054324;28;20571;-90
2021/10/07 07:11:15;;;;;;;84.63;27.63;;;13.10;99.90;;;11.05;100.00;101587.88;5051275;28;20166;-89
2021/10/07 07:13:43;;;;;;;90.38;28.77;;;13.20;99.90;;;10.93;100.00;101596.31;5059175;28;20037;-89
2021/10/07 07:16:11;;;;;;;122.80;31.88;;;13.20;99.90;;;10.78;100.00;101591.63;5032506;28;20140;-90
2021/10/07 07:18:39;;;;;;;86.65;28.77;;;13.10;99.90;;;10.83;100.00;101594.69;5028046;28;20049;-89
2021/10/07 07:21:08;;;;;;;95.43;29.23;;;13.10;99.90;;;10.89;100.00;101592.22;5028800;28;20163;-89
2021/10/07 07:23:35;;;;;;;59.15;25.20;;;13.10;99.90;;;10.97;100.00;101596.84;5029499;28;20096;-88
2021/10/07 07:26:03;;;;;;;69.35;27.30;;;13.20;99.90;;;11.10;100.00;101601.84;5055775;28;20094;-89
2021/10/07 07:28:31;;;;;;;72.72;26.42;;;13.10;99.90;;;11.26;100.00;101601.94;5051227;28;20560;-89
2021/10/07 07:30:58;;;;;;;85.88;28.38;;;13.10;99.90;;;11.38;100.00;101612.56;5052777;28;20111;-89
2021/10/07 07:33:27;;;;;;;83.00;28.25;;;13.20;99.90;;;11.42;100.00;101617.50;5031726;28;20528;-89
2021/10/07 07:35:55;;;;;;;58.10;23.98;;;13.10;99.90;;;11.50;100.00;101608.53;5030342;28;20192;-89
2021/10/07 07:38:23;;;;;;;61.05;25.00;;;13.20;99.90;;;11.59;100.00;101610.25;5048955;28;20048;-88
2021/10/07 07:40:51;;;;;;;56.30;24.45;;;13.30;99.90;;;11.71;100.00;101608.97;5031508;28;20056;-89
2021/10/07 07:43:21;;;;;;;60.20;24.30;;;13.30;99.90;;;11.79;100.00;101618.19;5047686;28;20056;-89
2021/10/07 07:45:50;;;;;;;53.60;23.33;;;13.30;99.90;;;11.75;100.00;101617.66;5049274;28;20489;-89
2021/10/07 07:48:18;;;;;;;61.30;23.33;;;13.30;99.90;;;11.78;100.00;101617.31;5037938;28;20434;-89
2021/10/07 07:50:45;;;;;;;54.75;23.13;;;13.40;99.90;;;11.67;100.00;101628.53;5029645;28;20095;-90
2021/10/07 07:53:13;;;;;;;58.70;24.02;;;13.40;99.90;;;11.63;100.00;101629.88;5047765;28;20045;-89
2021/10/07 07:55:42;;;;;;;65.03;25.77;;;13.40;99.90;;;11.66;100.00;101635.84;5054483;28;20044;-89
2021/10/07 07:58:11;;;;;;;70.78;25.50;;;13.40;99.90;;;11.71;100.00;101629.94;5042188;28;20033;-90
2021/10/07 08:00:39;;;;;;;62.20;24.60;;;13.50;99.90;;;11.65;100.00;101631.44;5029002;28;20045;-89
2021/10/07 08:03:07;;;;;;;71.20;26.75;;;13.50;99.90;;;11.72;100.00;101632.47;5048970;28;20036;-89
2021/10/07 08:05:34;;;;;;;68.57;25.95;;;13.40;99.90;;;11.79;100.00;101631.84;5031686;28;20529;-89
2021/10/07 08:08:02;;;;;;;68.35;26.02;;;13.50;99.90;;;11.88;100.00;101639.00;5043073;28;20340;-89
2021/10/07 08:10:29;;;;;;;66.45;24.40;;;13.50;99.90;;;12.00;100.00;101637.72;5053320;28;20486;-89
2021/10/07 08:12:58;;;;;;;71.50;26.50;;;13.50;99.90;;;12.07;100.00;101640.63;5035230;28;20048;-89
2021/10/07 08:15:27;;;;;;;58.63;25.20;;;13.50;99.90;;;12.02;100.00;101640.28;5055618;28;20082;-90
2021/10/07 08:17:54;;;;;;;67.68;25.58;;;13.50;99.90;;;11.92;100.00;101635.81;5024288;28;20037;-90
2021/10/07 08:20:22;;;;;;;66.18;24.67;;;13.50;99.90;;;12.05;100.00;101639.94;5045945;28;20486;-88
2021/10/07 08:22:51;;;;;;;68.55;27.23;;;13.60;99.90;;;12.21;100.00;101633.69;5046649;28;20546;-89
2021/10/07 08:25:20;;;;;;;68.75;26.75;;;13.60;99.90;;;12.33;100.00;101644.09;5034914;28;20041;-88
2021/10/07 08:27:47;;;;;;;59.95;24.13;;;13.70;99.90;;;12.42;100.00;101641.38;5034042;28;20045;-90
2021/10/07 08:30:18;;;;;;;57.50;24.20;;;13.70;99.90;;;12.40;100.00;101635.25;5039746;28;20037;-89
2021/10/07 08:32:45;;;;;;;60.08;24.35;;;13.80;99.90;;;12.30;100.00;101643.59;5064216;28;20036;-89
2021/10/07 08:35:13;;;;;;;56.20;23.70;;;13.80;99.90;;;12.33;100.00;101648.69;5052739;28;20048;-89
2021/10/07 08:37:40;;;;;;;56.35;24.50;;;13.90;99.90;;;12.39;100.00;101639.81;5033263;28;20049;-88
2021/10/07 08:40:10;;;;;;;63.15;26.05;;;13.90;99.90;;;12.39;100.00;101647.16;5047828;28;20083;-89
2021/10/07 08:42:38;;;;;;;56.07;24.17;;;13.90;99.90;;;12.47;100.00;101660.81;5030620;28;20140;-89
2021/10/07 08:45:07;;;;;;;55.90;24.52;;;13.90;99.90;;;12.61;100.00;101656.59;5033125;28;20085;-89
2021/10/07 08:47:40;;;;;;;62.13;25.00;;;13.90;99.90;;;12.63;100.00;101654.53;5036857;28;20044;-90
2021/10/07 08:50:11;;;;;;;53.42;24.67;;;14.00;99.90;;;12.74;100.00;101654.19;5031295;28;20168;-89
2021/10/07 08:52:38;;;;;;;60.28;24.15;;;14.00;99.90;;;12.77;100.00;101656.56;5042283;28;20046;-88
2021/10/07 08:55:08;;;;;;;56.22;23.60;;;14.00;99.90;;;12.69;100.00;101649.22;5029756;28;20040;-89
2021/10/07 08:57:36;;;;;;;54.08;24.70;;;14.00;99.90;;;12.60;100.00;101652.13;5018899;28;20071;-88
2021/10/07 09:00:04;;;;;;;48.70;23.00;;;14.10;99.90;;;12.57;100.00;101657.97;5024379;28;20036;-87
2021/10/07 09:02:33;;;;;;;45.88;21.05;;;14.10;99.90;;;12.66;100.00;101660.50;5025088;28;20096;-89
2021/10/07 09:05:12;;;;;;;41.60;19.95;;;14.10;99.90;;;12.81;100.00;101663.44;5039867;28;20565;-88
2021/10/07 09:08:01;;;;;;;40.75;19.70;;;14.10;99.90;;;12.78;100.00;101661.03;5044534;28;20120;-89
2021/10/07 09:10:40;;;;;;;37.50;19.13;;;14.10;99.90;;;12.85;100.00;101658.44;5029020;28;20049;-88
2021/10/07 09:13:11;;;;;;;38.30;19.48;;;14.20;99.90;;;12.93;100.00;101654.84;5062481;28;20044;-89
2021/10/07 09:15:48;;;;;;;41.78;20.25;;;14.30;99.90;;;12.95;100.00;101664.59;5024713;28;20059;-89
2021/10/07 09:18:16;;;;;;;36.05;18.90;;;14.30;99.90;;;12.85;100.00;101664.78;5033011;28;20043;-89
2021/10/07 09:20:47;;;;;;;35.47;17.55;;;14.10;99.90;;;12.76;100.00;101671.28;5036510;28;20043;-88
2021/10/07 09:23:18;;;;;;;34.95;17.08;;;14.00;99.90;;;12.79;100.00;101676.38;5026882;28;20108;-89
2021/10/07 09:26:04;;;;;;;31.00;16.92;;;14.00;99.90;;;12.84;100.00;101663.06;5040111;28;20451;-88
2021/10/07 09:28:47;;;;;;;29.95;15.40;;;14.00;99.90;;;12.85;100.00;101670.25;5044522;28;20037;-89
2021/10/07 09:31:15;;;;;;;31.38;15.85;;;14.10;99.90;;;12.89;100.00;101670.75;5048804;28;20482;-88
2021/10/07 09:33:44;;;;;;;37.55;19.13;;;14.20;99.90;;;12.87;100.00;101679.13;5020138;28;20689;-88
2021/10/07 09:36:22;;;;;;;37.65;19.13;;;14.20;99.90;;;12.84;100.00;101682.19;5039604;28;20625;-89
2021/10/07 09:38:53;;;;;;;36.90;18.42;;;14.20;99.90;;;12.89;100.00;101677.06;5023264;28;20118;-88
2021/10/07 09:41:23;;;;;;;42.10;21.45;;;14.20;99.90;;;13.02;100.00;101681.16;5028259;28;20110;-88
2021/10/07 09:43:56;;;;;;;36.95;19.30;;;14.30;99.90;;;12.97;100.00;101684.41;5043810;28;20525;-89
2021/10/07 09:46:47;;;;;;;43.42;19.02;;;14.40;99.90;;;12.97;100.00;101687.16;5034108;28;20048;-89
2021/10/07 09:49:18;;;;;;;33.40;18.27;;;14.40;99.90;;;13.07;100.00;101695.16;5032092;28;20091;-88
2021/10/07 09:51:49;;;;;;;39.70;19.20;;;14.40;99.90;;;13.08;100.00;101685.94;5055475;23;20076;-89
2021/10/07 09:54:20;;;;;;;34.95;18.80;;;14.40;99.90;;;13.22;100.00;101677.03;5060136;28;20078;-90
2021/10/07 09:56:56;;;;;;;34.95;17.65;;;14.50;99.90;;;13.22;100.00;101682.50;5061453;28;20062;-88
2021/10/07 09:59:26;;;;;;;34.90;18.63;;;14.50;99.90;;;13.14;100.00;101690.72;5066110;28;20048;-90
2021/10/07 10:01:55;;;;;;;31.63;17.67;;;14.50;99.90;;;13.03;100.00;101685.59;5071249;28;20037;-89